sensor_id;sensor_type;location;lat;lon;timestamp;noise_LAeq;noise_LA_min;noise_LA_max;noise_LA01;noise_LA95
79200;Laerm;68628;48.714;9.472;2023-05-29T00:00:20;39.65;34.40;47.88;;
79200;Laerm;68628;48.714;9.472;2023-05-29T00:02:50;41.48;33.91;51.62;;
79200;Laerm;68628;48.714;9.472;2023-05-29T00:05:17;43.04;35.83;52.14;;
79200;Laerm;68628;48.714;9.472;2023-05-29T00:07:46;41.57;31.60;52.91;;
79200;Laerm;68628;48.714;9.472;2023-05-29T00:10:12;43.24;33.21;50.34;;
79200;Laerm;68628;48.714;9.472;2023-05-29T00:12:38;37.43;32.77;47.62;;
79200;Laerm;68628;48.714;9.472;2023-05-29T00:15:06;40.15;32.66;52.79;;
79200;Laerm;68628;48.714;9.472;2023-05-29T00:17:32;38.20;33.02;44.44;;
79200;Laerm;68628;48.714;9.472;2023-05-29T00:20:02;35.43;31.96;44.22;;
79200;Laerm;68628;48.714;9.472;2023-05-29T00:22:37;38.09;32.97;45.58;;
79200;Laerm;68628;48.714;9.472;2023-05-29T00:25:07;34.84;30.17;46.71;;
79200;Laerm;68628;48.714;9.472;2023-05-29T00:27:34;35.45;30.20;44.28;;
79200;Laerm;68628;48.714;9.472;2023-05-29T00:30:02;35.28;30.47;46.85;;
79200;Laerm;68628;48.714;9.472;2023-05-29T00:32:28;35.95;33.00;43.68;;
79200;Laerm;68628;48.714;9.472;2023-05-29T00:34:54;41.66;33.80;54.66;;
79200;Laerm;68628;48.714;9.472;2023-05-29T00:37:21;39.18;31.48;51.52;;
79200;Laerm;68628;48.714;9.472;2023-05-29T00:39:48;38.07;34.44;48.28;;
79200;Laerm;68628;48.714;9.472;2023-05-29T00:42:14;37.47;33.20;44.32;;
79200;Laerm;68628;48.714;9.472;2023-05-29T00:44:39;38.00;33.65;48.25;;
79200;Laerm;68628;48.714;9.472;2023-05-29T00:47:06;36.55;32.45;44.62;;
79200;Laerm;68628;48.714;9.472;2023-05-29T00:49:36;37.70;34.14;44.20;;
79200;Laerm;68628;48.714;9.472;2023-05-29T00:52:07;37.22;32.12;43.53;;
79200;Laerm;68628;48.714;9.472;2023-05-29T00:54:34;37.31;33.21;46.61;;
79200;Laerm;68628;48.714;9.472;2023-05-29T00:57:02;38.91;32.60;51.31;;
79200;Laerm;68628;48.714;9.472;2023-05-29T00:59:31;36.00;33.04;43.08;;
79200;Laerm;68628;48.714;9.472;2023-05-29T01:02:00;36.28;32.42;46.87;;
79200;Laerm;68628;48.714;9.472;2023-05-29T01:04:27;34.70;32.74;37.68;;
79200;Laerm;68628;48.714;9.472;2023-05-29T01:06:53;35.56;32.06;42.18;;
79200;Laerm;68628;48.714;9.472;2023-05-29T01:09:19;36.21;33.19;42.30;;
79200;Laerm;68628;48.714;9.472;2023-05-29T01:12:10;36.70;32.26;44.21;;
79200;Laerm;68628;48.714;9.472;2023-05-29T01:18:19;36.06;31.85;42.43;;
79200;Laerm;68628;48.714;9.472;2023-05-29T01:23:52;36.69;30.81;46.36;;
79200;Laerm;68628;48.714;9.472;2023-05-29T01:26:45;35.51;31.06;54.62;;
79200;Laerm;68628;48.714;9.472;2023-05-29T01:29:17;40.84;35.74;51.13;;
79200;Laerm;68628;48.714;9.472;2023-05-29T01:31:46;39.82;33.69;52.30;;
79200;Laerm;68628;48.714;9.472;2023-05-29T01:34:13;36.17;32.24;43.84;;
79200;Laerm;68628;48.714;9.472;2023-05-29T01:36:39;39.82;33.06;52.59;;
79200;Laerm;68628;48.714;9.472;2023-05-29T01:39:05;34.43;30.57;44.30;;
79200;Laerm;68628;48.714;9.472;2023-05-29T01:41:34;33.89;29.31;46.49;;
79200;Laerm;68628;48.714;9.472;2023-05-29T01:44:05;35.72;30.87;45.40;;
79200;Laerm;68628;48.714;9.472;2023-05-29T01:46:37;35.78;31.83;41.62;;
79200;Laerm;68628;48.714;9.472;2023-05-29T01:49:04;39.10;30.99;67.87;;
79200;Laerm;68628;48.714;9.472;2023-05-29T01:51:30;35.09;31.20;44.63;;
79200;Laerm;68628;48.714;9.472;2023-05-29T01:53:58;40.33;32.91;53.92;;
79200;Laerm;68628;48.714;9.472;2023-05-29T01:56:27;35.73;32.29;42.46;;
79200;Laerm;68628;48.714;9.472;2023-05-29T01:58:55;35.00;30.49;42.94;;
79200;Laerm;68628;48.714;9.472;2023-05-29T02:01:22;37.10;30.81;47.59;;
79200;Laerm;68628;48.714;9.472;2023-05-29T02:03:48;37.19;33.03;44.11;;
79200;Laerm;68628;48.714;9.472;2023-05-29T02:06:14;39.90;35.12;46.96;;
79200;Laerm;68628;48.714;9.472;2023-05-29T02:08:40;44.38;34.58;69.23;;
79200;Laerm;68628;48.714;9.472;2023-05-29T02:11:06;38.47;35.02;47.34;;
79200;Laerm;68628;48.714;9.472;2023-05-29T02:13:32;43.02;34.48;56.74;;
79200;Laerm;68628;48.714;9.472;2023-05-29T02:15:57;40.96;32.92;54.55;;
79200;Laerm;68628;48.714;9.472;2023-05-29T02:18:23;42.14;34.88;55.75;;
79200;Laerm;68628;48.714;9.472;2023-05-29T02:20:49;44.41;34.56;55.68;;
79200;Laerm;68628;48.714;9.472;2023-05-29T02:23:15;45.67;34.71;58.05;;
79200;Laerm;68628;48.714;9.472;2023-05-29T02:25:41;44.71;35.10;57.90;;
79200;Laerm;68628;48.714;9.472;2023-05-29T02:28:07;46.01;35.03;58.12;;
79200;Laerm;68628;48.714;9.472;2023-05-29T02:30:34;45.76;35.02;57.25;;
79200;Laerm;68628;48.714;9.472;2023-05-29T02:33:00;45.37;36.27;57.25;;
79200;Laerm;68628;48.714;9.472;2023-05-29T02:35:26;45.97;36.49;56.15;;
79200;Laerm;68628;48.714;9.472;2023-05-29T02:37:52;45.50;37.38;55.39;;
79200;Laerm;68628;48.714;9.472;2023-05-29T02:40:19;45.94;37.18;58.46;;
79200;Laerm;68628;48.714;9.472;2023-05-29T02:42:46;44.95;37.17;54.41;;
79200;Laerm;68628;48.714;9.472;2023-05-29T02:45:12;45.55;37.20;54.09;;
79200;Laerm;68628;48.714;9.472;2023-05-29T02:47:38;49.08;37.73;61.53;;
79200;Laerm;68628;48.714;9.472;2023-05-29T02:50:05;46.71;38.27;62.36;;
79200;Laerm;68628;48.714;9.472;2023-05-29T02:52:34;47.50;38.34;56.18;;
79200;Laerm;68628;48.714;9.472;2023-05-29T02:55:03;46.90;37.88;58.97;;
79200;Laerm;68628;48.714;9.472;2023-05-29T02:57:29;49.99;36.04;62.71;;
79200;Laerm;68628;48.714;9.472;2023-05-29T02:59:55;46.68;37.76;56.73;;
79200;Laerm;68628;48.714;9.472;2023-05-29T03:02:20;47.78;36.76;59.77;;
79200;Laerm;68628;48.714;9.472;2023-05-29T03:04:47;46.15;35.50;57.93;;
79200;Laerm;68628;48.714;9.472;2023-05-29T03:07:15;47.63;35.81;61.51;;
79200;Laerm;68628;48.714;9.472;2023-05-29T03:09:41;46.14;37.10;54.97;;
79200;Laerm;68628;48.714;9.472;2023-05-29T03:12:07;46.42;38.10;59.82;;
79200;Laerm;68628;48.714;9.472;2023-05-29T03:14:33;47.18;36.91;69.03;;
79200;Laerm;68628;48.714;9.472;2023-05-29T03:17:06;47.20;37.17;58.79;;
79200;Laerm;68628;48.714;9.472;2023-05-29T03:19:33;47.89;37.89;58.12;;
79200;Laerm;68628;48.714;9.472;2023-05-29T03:21:59;43.61;35.78;54.82;;
79200;Laerm;68628;48.714;9.472;2023-05-29T03:24:25;43.79;34.87;56.02;;
79200;Laerm;68628;48.714;9.472;2023-05-29T03:26:50;43.52;36.50;53.51;;
79200;Laerm;68628;48.714;9.472;2023-05-29T03:29:17;46.61;33.95;62.08;;
79200;Laerm;68628;48.714;9.472;2023-05-29T03:31:43;39.31;35.38;50.03;;
79200;Laerm;68628;48.714;9.472;2023-05-29T03:34:08;40.71;34.33;54.92;;
79200;Laerm;68628;48.714;9.472;2023-05-29T03:36:34;43.09;33.97;55.18;;
79200;Laerm;68628;48.714;9.472;2023-05-29T03:39:03;43.12;35.59;55.42;;
79200;Laerm;68628;48.714;9.472;2023-05-29T03:41:28;46.66;36.56;59.80;;
79200;Laerm;68628;48.714;9.472;2023-05-29T03:43:54;45.04;35.62;60.55;;
79200;Laerm;68628;48.714;9.472;2023-05-29T03:46:19;46.95;34.65;63.73;;
79200;Laerm;68628;48.714;9.472;2023-05-29T03:48:45;42.04;33.98;56.25;;
79200;Laerm;68628;48.714;9.472;2023-05-29T03:51:11;38.86;33.72;47.76;;
79200;Laerm;68628;48.714;9.472;2023-05-29T03:53:37;43.19;33.98;58.28;;
79200;Laerm;68628;48.714;9.472;2023-05-29T03:56:02;42.40;34.82;53.38;;
79200;Laerm;68628;48.714;9.472;2023-05-29T03:58:28;42.65;35.62;60.41;;
79200;Laerm;68628;48.714;9.472;2023-05-29T04:00:54;51.29;35.34;68.12;;
79200;Laerm;68628;48.714;9.472;2023-05-29T04:03:20;43.16;34.04;56.61;;
79200;Laerm;68628;48.714;9.472;2023-05-29T04:05:45;46.45;37.02;57.01;;
79200;Laerm;68628;48.714;9.472;2023-05-29T04:08:11;44.74;38.10;52.68;;
79200;Laerm;68628;48.714;9.472;2023-05-29T04:10:39;42.78;34.93;55.43;;
79200;Laerm;68628;48.714;9.472;2023-05-29T04:13:04;40.46;35.14;48.24;;
79200;Laerm;68628;48.714;9.472;2023-05-29T04:15:31;39.21;33.28;51.12;;
79200;Laerm;68628;48.714;9.472;2023-05-29T04:17:59;41.30;33.20;56.49;;
79200;Laerm;68628;48.714;9.472;2023-05-29T04:20:25;41.47;34.72;57.34;;
79200;Laerm;68628;48.714;9.472;2023-05-29T04:22:51;40.16;35.29;51.57;;
79200;Laerm;68628;48.714;9.472;2023-05-29T04:25:17;40.33;34.12;54.23;;
79200;Laerm;68628;48.714;9.472;2023-05-29T04:27:44;43.98;37.55;50.66;;
79200;Laerm;68628;48.714;9.472;2023-05-29T04:30:15;40.59;35.29;50.47;;
79200;Laerm;68628;48.714;9.472;2023-05-29T04:32:42;44.24;36.23;55.44;;
79200;Laerm;68628;48.714;9.472;2023-05-29T04:35:08;38.16;33.95;49.87;;
79200;Laerm;68628;48.714;9.472;2023-05-29T04:37:35;38.78;35.19;46.26;;
79200;Laerm;68628;48.714;9.472;2023-05-29T04:40:08;37.56;34.17;44.10;;
79200;Laerm;68628;48.714;9.472;2023-05-29T04:42:38;38.67;34.97;48.08;;
79200;Laerm;68628;48.714;9.472;2023-05-29T04:45:06;43.96;34.97;54.63;;
79200;Laerm;68628;48.714;9.472;2023-05-29T04:47:32;43.78;35.01;64.39;;
79200;Laerm;68628;48.714;9.472;2023-05-29T04:50:02;42.21;35.46;55.92;;
79200;Laerm;68628;48.714;9.472;2023-05-29T04:52:28;43.21;33.89;58.81;;
79200;Laerm;68628;48.714;9.472;2023-05-29T04:54:54;45.85;34.31;63.61;;
79200;Laerm;68628;48.714;9.472;2023-05-29T04:57:22;38.97;34.53;50.71;;
79200;Laerm;68628;48.714;9.472;2023-05-29T04:59:47;39.46;35.78;52.07;;
79200;Laerm;68628;48.714;9.472;2023-05-29T05:02:13;42.90;37.75;51.52;;
79200;Laerm;68628;48.714;9.472;2023-05-29T05:04:39;41.91;35.26;61.42;;
79200;Laerm;68628;48.714;9.472;2023-05-29T05:07:07;38.64;34.06;53.46;;
79200;Laerm;68628;48.714;9.472;2023-05-29T05:09:33;42.76;36.06;56.31;;
79200;Laerm;68628;48.714;9.472;2023-05-29T05:11:59;45.16;35.81;61.04;;
79200;Laerm;68628;48.714;9.472;2023-05-29T05:14:24;40.93;35.02;57.18;;
79200;Laerm;68628;48.714;9.472;2023-05-29T05:16:50;44.04;34.85;52.90;;
79200;Laerm;68628;48.714;9.472;2023-05-29T05:19:16;42.12;35.67;56.20;;
79200;Laerm;68628;48.714;9.472;2023-05-29T05:21:42;44.44;35.52;58.20;;
79200;Laerm;68628;48.714;9.472;2023-05-29T05:24:07;45.30;36.68;56.73;;
79200;Laerm;68628;48.714;9.472;2023-05-29T05:26:33;47.55;36.31;64.49;;
79200;Laerm;68628;48.714;9.472;2023-05-29T05:28:59;47.87;37.32;57.40;;
79200;Laerm;68628;48.714;9.472;2023-05-29T05:31:25;44.63;35.10;58.07;;
79200;Laerm;68628;48.714;9.472;2023-05-29T05:33:51;40.38;33.79;53.37;;
79200;Laerm;68628;48.714;9.472;2023-05-29T05:36:17;38.66;33.60;47.17;;
79200;Laerm;68628;48.714;9.472;2023-05-29T05:38:42;42.46;34.32;55.80;;
79200;Laerm;68628;48.714;9.472;2023-05-29T05:41:08;45.24;34.36;62.41;;
79200;Laerm;68628;48.714;9.472;2023-05-29T05:43:34;47.01;34.01;61.54;;
79200;Laerm;68628;48.714;9.472;2023-05-29T05:45:59;46.54;34.28;57.17;;
79200;Laerm;68628;48.714;9.472;2023-05-29T05:48:25;45.97;34.80;58.93;;
79200;Laerm;68628;48.714;9.472;2023-05-29T05:50:51;43.87;35.65;60.98;;
79200;Laerm;68628;48.714;9.472;2023-05-29T05:53:16;41.69;34.98;54.83;;
79200;Laerm;68628;48.714;9.472;2023-05-29T05:55:43;45.14;34.74;60.39;;
79200;Laerm;68628;48.714;9.472;2023-05-29T05:58:08;42.39;34.23;55.17;;
79200;Laerm;68628;48.714;9.472;2023-05-29T06:00:34;48.56;35.77;55.49;;
79200;Laerm;68628;48.714;9.472;2023-05-29T06:03:01;48.63;35.00;56.06;;
79200;Laerm;68628;48.714;9.472;2023-05-29T06:05:29;44.33;34.14;55.24;;
79200;Laerm;68628;48.714;9.472;2023-05-29T06:07:55;40.90;33.46;52.84;;
79200;Laerm;68628;48.714;9.472;2023-05-29T06:10:21;40.87;34.48;50.98;;
79200;Laerm;68628;48.714;9.472;2023-05-29T06:12:46;42.24;33.90;51.58;;
79200;Laerm;68628;48.714;9.472;2023-05-29T06:15:12;41.69;34.06;52.97;;
79200;Laerm;68628;48.714;9.472;2023-05-29T06:17:39;43.11;35.86;53.96;;
79200;Laerm;68628;48.714;9.472;2023-05-29T06:20:05;44.88;34.85;59.72;;
79200;Laerm;68628;48.714;9.472;2023-05-29T06:22:37;47.97;35.79;67.82;;
79200;Laerm;68628;48.714;9.472;2023-05-29T06:25:03;41.31;34.84;51.89;;
79200;Laerm;68628;48.714;9.472;2023-05-29T06:27:29;48.01;34.57;62.56;;
79200;Laerm;68628;48.714;9.472;2023-05-29T06:29:55;48.49;35.37;61.00;;
79200;Laerm;68628;48.714;9.472;2023-05-29T06:32:21;47.01;34.82;66.04;;
79200;Laerm;68628;48.714;9.472;2023-05-29T06:34:47;42.20;35.08;60.23;;
79200;Laerm;68628;48.714;9.472;2023-05-29T06:37:13;44.16;34.33;56.91;;
79200;Laerm;68628;48.714;9.472;2023-05-29T06:39:39;40.48;34.70;49.90;;
79200;Laerm;68628;48.714;9.472;2023-05-29T06:42:08;45.02;34.49;58.11;;
79200;Laerm;68628;48.714;9.472;2023-05-29T06:44:33;39.34;34.29;49.18;;
79200;Laerm;68628;48.714;9.472;2023-05-29T06:46:59;44.14;35.01;63.23;;
79200;Laerm;68628;48.714;9.472;2023-05-29T06:49:25;45.76;35.04;56.62;;
79200;Laerm;68628;48.714;9.472;2023-05-29T06:51:51;50.51;42.47;60.78;;
79200;Laerm;68628;48.714;9.472;2023-05-29T06:54:17;50.07;41.92;60.02;;
79200;Laerm;68628;48.714;9.472;2023-05-29T06:56:42;47.83;40.04;60.49;;
79200;Laerm;68628;48.714;9.472;2023-05-29T06:59:08;48.63;40.57;58.05;;
79200;Laerm;68628;48.714;9.472;2023-05-29T07:01:34;43.38;34.63;54.65;;
79200;Laerm;68628;48.714;9.472;2023-05-29T07:04:00;43.63;34.75;55.85;;
79200;Laerm;68628;48.714;9.472;2023-05-29T07:06:25;44.89;34.50;62.21;;
79200;Laerm;68628;48.714;9.472;2023-05-29T07:08:51;46.42;34.76;59.29;;
79200;Laerm;68628;48.714;9.472;2023-05-29T07:11:16;41.88;33.90;54.72;;
79200;Laerm;68628;48.714;9.472;2023-05-29T07:13:42;48.56;33.32;63.51;;
79200;Laerm;68628;48.714;9.472;2023-05-29T07:16:08;46.07;32.72;65.03;;
79200;Laerm;68628;48.714;9.472;2023-05-29T07:18:33;48.41;34.29;61.11;;
79200;Laerm;68628;48.714;9.472;2023-05-29T07:21:00;47.56;33.18;61.81;;
79200;Laerm;68628;48.714;9.472;2023-05-29T07:23:26;46.92;34.18;62.52;;
79200;Laerm;68628;48.714;9.472;2023-05-29T07:25:51;49.35;34.52;63.31;;
79200;Laerm;68628;48.714;9.472;2023-05-29T07:28:17;48.39;33.21;69.15;;
79200;Laerm;68628;48.714;9.472;2023-05-29T07:30:43;47.96;33.15;62.02;;
79200;Laerm;68628;48.714;9.472;2023-05-29T07:33:08;51.92;34.55;64.19;;
79200;Laerm;68628;48.714;9.472;2023-05-29T07:35:34;48.71;33.75;61.52;;
79200;Laerm;68628;48.714;9.472;2023-05-29T07:37:59;47.31;33.25;60.69;;
79200;Laerm;68628;48.714;9.472;2023-05-29T07:40:25;45.72;32.74;60.49;;
79200;Laerm;68628;48.714;9.472;2023-05-29T07:42:51;46.92;34.19;69.35;;
79200;Laerm;68628;48.714;9.472;2023-05-29T07:45:17;45.50;35.03;64.93;;
79200;Laerm;68628;48.714;9.472;2023-05-29T07:47:42;49.99;34.84;64.61;;
79200;Laerm;68628;48.714;9.472;2023-05-29T07:50:09;46.67;34.02;60.73;;
79200;Laerm;68628;48.714;9.472;2023-05-29T07:52:36;43.88;34.06;59.05;;
79200;Laerm;68628;48.714;9.472;2023-05-29T07:55:01;46.44;34.16;61.49;;
79200;Laerm;68628;48.714;9.472;2023-05-29T07:57:28;41.97;32.88;59.43;;
79200;Laerm;68628;48.714;9.472;2023-05-29T07:59:54;46.82;36.32;61.58;;
79200;Laerm;68628;48.714;9.472;2023-05-29T08:02:20;49.68;35.97;65.75;;
79200;Laerm;68628;48.714;9.472;2023-05-29T08:04:46;41.27;36.36;52.57;;
79200;Laerm;68628;48.714;9.472;2023-05-29T08:07:12;46.24;36.40;63.25;;
79200;Laerm;68628;48.714;9.472;2023-05-29T08:09:38;47.57;37.11;57.69;;
79200;Laerm;68628;48.714;9.472;2023-05-29T08:12:04;45.63;37.54;56.86;;
79200;Laerm;68628;48.714;9.472;2023-05-29T08:14:31;43.65;34.78;55.23;;
79200;Laerm;68628;48.714;9.472;2023-05-29T08:16:56;48.13;35.30;58.46;;
79200;Laerm;68628;48.714;9.472;2023-05-29T08:19:23;45.02;34.03;60.25;;
79200;Laerm;68628;48.714;9.472;2023-05-29T08:21:49;44.49;34.78;55.10;;
79200;Laerm;68628;48.714;9.472;2023-05-29T08:24:14;45.85;33.61;59.31;;
79200;Laerm;68628;48.714;9.472;2023-05-29T08:26:40;47.85;33.84;60.52;;
79200;Laerm;68628;48.714;9.472;2023-05-29T08:29:06;47.84;34.63;59.80;;
79200;Laerm;68628;48.714;9.472;2023-05-29T08:31:32;46.38;35.17;58.47;;
79200;Laerm;68628;48.714;9.472;2023-05-29T08:33:58;42.54;34.07;56.98;;
79200;Laerm;68628;48.714;9.472;2023-05-29T08:36:25;45.57;35.41;59.07;;
79200;Laerm;68628;48.714;9.472;2023-05-29T08:38:51;47.53;34.91;63.38;;
79200;Laerm;68628;48.714;9.472;2023-05-29T08:41:26;48.65;34.78;63.65;;
79200;Laerm;68628;48.714;9.472;2023-05-29T08:43:55;42.36;34.74;56.72;;
79200;Laerm;68628;48.714;9.472;2023-05-29T08:46:21;44.62;34.85;59.80;;
79200;Laerm;68628;48.714;9.472;2023-05-29T08:48:49;46.42;36.22;59.09;;
79200;Laerm;68628;48.714;9.472;2023-05-29T08:51:20;48.69;36.69;61.16;;
79200;Laerm;68628;48.714;9.472;2023-05-29T08:53:51;47.93;36.31;61.21;;
79200;Laerm;68628;48.714;9.472;2023-05-29T08:56:17;44.89;34.69;57.79;;
79200;Laerm;68628;48.714;9.472;2023-05-29T08:58:44;39.34;33.38;57.47;;
79200;Laerm;68628;48.714;9.472;2023-05-29T09:01:10;47.33;33.72;62.00;;
79200;Laerm;68628;48.714;9.472;2023-05-29T09:03:36;48.33;35.48;64.04;;
79200;Laerm;68628;48.714;9.472;2023-05-29T09:06:03;47.43;35.07;59.14;;
79200;Laerm;68628;48.714;9.472;2023-05-29T09:08:30;50.57;37.55;60.43;;
79200;Laerm;68628;48.714;9.472;2023-05-29T09:10:56;50.66;38.20;61.95;;
79200;Laerm;68628;48.714;9.472;2023-05-29T09:13:23;50.97;36.35;67.42;;
79200;Laerm;68628;48.714;9.472;2023-05-29T09:15:48;49.41;37.34;60.69;;
79200;Laerm;68628;48.714;9.472;2023-05-29T09:18:17;50.45;36.09;60.34;;
79200;Laerm;68628;48.714;9.472;2023-05-29T09:20:43;45.16;35.45;58.60;;
79200;Laerm;68628;48.714;9.472;2023-05-29T09:23:09;44.19;35.56;57.03;;
79200;Laerm;68628;48.714;9.472;2023-05-29T09:25:41;45.99;37.39;61.41;;
79200;Laerm;68628;48.714;9.472;2023-05-29T09:28:08;42.53;35.79;61.22;;
79200;Laerm;68628;48.714;9.472;2023-05-29T09:30:46;49.11;36.71;60.41;;
79200;Laerm;68628;48.714;9.472;2023-05-29T09:33:16;50.53;37.87;65.51;;
79200;Laerm;68628;48.714;9.472;2023-05-29T09:35:44;51.68;37.52;67.08;;
79200;Laerm;68628;48.714;9.472;2023-05-29T09:38:14;48.65;37.32;59.83;;
79200;Laerm;68628;48.714;9.472;2023-05-29T09:40:41;48.49;34.89;72.62;;
79200;Laerm;68628;48.714;9.472;2023-05-29T09:43:12;42.40;35.12;55.98;;
79200;Laerm;68628;48.714;9.472;2023-05-29T09:45:41;43.18;36.24;60.06;;
79200;Laerm;68628;48.714;9.472;2023-05-29T09:48:15;51.40;36.55;64.62;;
79200;Laerm;68628;48.714;9.472;2023-05-29T09:50:42;43.66;35.78;61.89;;
79200;Laerm;68628;48.714;9.472;2023-05-29T09:53:28;51.52;34.90;68.57;;
79200;Laerm;68628;48.714;9.472;2023-05-29T09:55:56;48.32;35.74;67.31;;
79200;Laerm;68628;48.714;9.472;2023-05-29T09:58:24;45.91;35.58;56.94;;
79200;Laerm;68628;48.714;9.472;2023-05-29T10:00:52;46.13;34.33;60.18;;
79200;Laerm;68628;48.714;9.472;2023-05-29T10:03:19;48.41;35.99;64.05;;
79200;Laerm;68628;48.714;9.472;2023-05-29T10:05:52;48.55;35.21;70.07;;
79200;Laerm;68628;48.714;9.472;2023-05-29T10:08:20;47.64;33.71;59.87;;
79200;Laerm;68628;48.714;9.472;2023-05-29T10:10:55;40.75;33.73;56.92;;
79200;Laerm;68628;48.714;9.472;2023-05-29T10:13:31;46.78;35.71;58.77;;
79200;Laerm;68628;48.714;9.472;2023-05-29T10:16:03;46.48;35.95;61.70;;
79200;Laerm;68628;48.714;9.472;2023-05-29T10:18:38;50.23;36.22;70.00;;
79200;Laerm;68628;48.714;9.472;2023-05-29T10:21:12;47.76;36.29;60.41;;
79200;Laerm;68628;48.714;9.472;2023-05-29T10:23:43;47.31;34.33;58.17;;
79200;Laerm;68628;48.714;9.472;2023-05-29T10:26:22;46.17;33.97;61.82;;
79200;Laerm;68628;48.714;9.472;2023-05-29T10:37:35;47.55;36.25;64.66;;
79200;Laerm;68628;48.714;9.472;2023-05-29T10:40:10;46.65;34.60;57.66;;
79200;Laerm;68628;48.714;9.472;2023-05-29T10:42:46;49.11;35.76;60.47;;
79200;Laerm;68628;48.714;9.472;2023-05-29T10:50:45;44.75;35.01;57.56;;
79200;Laerm;68628;48.714;9.472;2023-05-29T10:53:22;47.59;33.52;70.30;;
79200;Laerm;68628;48.714;9.472;2023-05-29T10:55:50;45.47;36.16;59.16;;
79200;Laerm;68628;48.714;9.472;2023-05-29T10:58:22;44.97;35.69;57.30;;
79200;Laerm;68628;48.714;9.472;2023-05-29T11:00:53;45.37;37.77;57.13;;
79200;Laerm;68628;48.714;9.472;2023-05-29T11:03:23;47.54;36.81;58.82;;
79200;Laerm;68628;48.714;9.472;2023-05-29T11:06:00;45.50;34.64;60.96;;
79200;Laerm;68628;48.714;9.472;2023-05-29T11:08:55;48.43;33.25;61.25;;
79200;Laerm;68628;48.714;9.472;2023-05-29T11:13:55;48.45;35.17;61.10;;
79200;Laerm;68628;48.714;9.472;2023-05-29T11:18:58;50.41;36.11;66.59;;
79200;Laerm;68628;48.714;9.472;2023-05-29T11:24:23;60.70;38.06;78.51;;
79200;Laerm;68628;48.714;9.472;2023-05-29T11:26:52;47.85;36.53;65.40;;
79200;Laerm;68628;48.714;9.472;2023-05-29T11:29:23;44.91;36.83;57.48;;
79200;Laerm;68628;48.714;9.472;2023-05-29T11:31:58;48.48;36.79;66.76;;
79200;Laerm;68628;48.714;9.472;2023-05-29T11:34:30;48.24;35.68;60.44;;
79200;Laerm;68628;48.714;9.472;2023-05-29T11:36:58;42.61;35.33;60.45;;
79200;Laerm;68628;48.714;9.472;2023-05-29T11:39:24;42.58;34.23;55.27;;
79200;Laerm;68628;48.714;9.472;2023-05-29T11:41:51;43.02;35.82;52.61;;
79200;Laerm;68628;48.714;9.472;2023-05-29T11:44:17;54.03;37.39;68.77;;
79200;Laerm;68628;48.714;9.472;2023-05-29T11:46:43;47.03;35.45;63.28;;
79200;Laerm;68628;48.714;9.472;2023-05-29T11:49:08;49.00;36.23;67.23;;
79200;Laerm;68628;48.714;9.472;2023-05-29T11:51:34;47.21;38.15;62.45;;
79200;Laerm;68628;48.714;9.472;2023-05-29T11:54:00;47.53;36.82;63.75;;
79200;Laerm;68628;48.714;9.472;2023-05-29T11:56:27;44.81;37.98;60.64;;
79200;Laerm;68628;48.714;9.472;2023-05-29T11:58:55;47.31;36.90;59.06;;
79200;Laerm;68628;48.714;9.472;2023-05-29T12:01:23;49.66;36.45;67.40;;
79200;Laerm;68628;48.714;9.472;2023-05-29T12:03:50;45.97;35.30;61.73;;
79200;Laerm;68628;48.714;9.472;2023-05-29T12:06:30;45.86;35.45;63.59;;
79200;Laerm;68628;48.714;9.472;2023-05-29T12:08:56;44.70;36.75;59.63;;
79200;Laerm;68628;48.714;9.472;2023-05-29T12:11:25;49.28;35.74;65.28;;
79200;Laerm;68628;48.714;9.472;2023-05-29T12:14:01;51.99;34.90;69.25;;
79200;Laerm;68628;48.714;9.472;2023-05-29T12:16:30;44.49;34.11;56.63;;
79200;Laerm;68628;48.714;9.472;2023-05-29T12:18:59;43.90;35.66;54.88;;
79200;Laerm;68628;48.714;9.472;2023-05-29T12:21:27;50.52;38.76;64.55;;
79200;Laerm;68628;48.714;9.472;2023-05-29T12:23:54;52.06;36.79;70.32;;
79200;Laerm;68628;48.714;9.472;2023-05-29T12:26:24;42.03;35.67;53.34;;
79200;Laerm;68628;48.714;9.472;2023-05-29T12:28:51;46.57;33.63;65.24;;
79200;Laerm;68628;48.714;9.472;2023-05-29T12:31:30;42.09;35.04;57.63;;
79200;Laerm;68628;48.714;9.472;2023-05-29T12:34:11;43.99;35.24;54.99;;
79200;Laerm;68628;48.714;9.472;2023-05-29T12:36:41;43.74;35.76;57.98;;
79200;Laerm;68628;48.714;9.472;2023-05-29T12:39:09;45.52;35.95;61.31;;
79200;Laerm;68628;48.714;9.472;2023-05-29T12:41:37;44.98;37.53;58.18;;
79200;Laerm;68628;48.714;9.472;2023-05-29T12:44:06;45.61;34.99;60.18;;
79200;Laerm;68628;48.714;9.472;2023-05-29T12:46:42;50.40;35.07;71.25;;
79200;Laerm;68628;48.714;9.472;2023-05-29T12:49:17;42.85;34.26;55.43;;
79200;Laerm;68628;48.714;9.472;2023-05-29T12:51:45;45.96;37.40;58.91;;
79200;Laerm;68628;48.714;9.472;2023-05-29T12:54:15;46.03;38.28;59.52;;
79200;Laerm;68628;48.714;9.472;2023-05-29T12:56:42;50.71;38.58;68.91;;
79200;Laerm;68628;48.714;9.472;2023-05-29T12:59:09;46.00;38.16;56.41;;
79200;Laerm;68628;48.714;9.472;2023-05-29T13:01:38;49.83;38.43;64.70;;
79200;Laerm;68628;48.714;9.472;2023-05-29T13:04:05;50.25;36.75;65.61;;
79200;Laerm;68628;48.714;9.472;2023-05-29T13:06:36;52.82;35.21;68.92;;
79200;Laerm;68628;48.714;9.472;2023-05-29T13:09:03;46.39;35.14;61.01;;
79200;Laerm;68628;48.714;9.472;2023-05-29T13:11:29;45.30;35.73;55.60;;
79200;Laerm;68628;48.714;9.472;2023-05-29T13:13:54;44.56;36.19;58.88;;
79200;Laerm;68628;48.714;9.472;2023-05-29T13:16:20;50.45;38.56;67.41;;
79200;Laerm;68628;48.714;9.472;2023-05-29T13:18:46;51.34;37.70;66.09;;
79200;Laerm;68628;48.714;9.472;2023-05-29T13:21:12;53.09;38.49;65.39;;
79200;Laerm;68628;48.714;9.472;2023-05-29T13:23:37;50.08;37.52;64.24;;
79200;Laerm;68628;48.714;9.472;2023-05-29T13:26:04;51.06;36.72;66.06;;
79200;Laerm;68628;48.714;9.472;2023-05-29T13:28:30;52.18;37.31;67.53;;
79200;Laerm;68628;48.714;9.472;2023-05-29T13:30:56;53.30;36.60;69.12;;
79200;Laerm;68628;48.714;9.472;2023-05-29T13:33:22;51.10;37.53;67.91;;
79200;Laerm;68628;48.714;9.472;2023-05-29T13:35:47;45.21;36.40;57.19;;
79200;Laerm;68628;48.714;9.472;2023-05-29T13:38:13;48.24;36.75;61.11;;
79200;Laerm;68628;48.714;9.472;2023-05-29T13:40:39;51.87;38.52;63.37;;
79200;Laerm;68628;48.714;9.472;2023-05-29T13:43:04;52.52;37.19;66.26;;
79200;Laerm;68628;48.714;9.472;2023-05-29T13:45:30;52.73;37.05;64.12;;
79200;Laerm;68628;48.714;9.472;2023-05-29T13:47:56;50.97;38.72;64.51;;
79200;Laerm;68628;48.714;9.472;2023-05-29T13:50:22;49.87;37.19;66.05;;
79200;Laerm;68628;48.714;9.472;2023-05-29T13:52:50;51.53;35.87;71.87;;
79200;Laerm;68628;48.714;9.472;2023-05-29T13:55:16;47.84;37.97;60.75;;
79200;Laerm;68628;48.714;9.472;2023-05-29T13:57:41;50.41;38.40;65.35;;
79200;Laerm;68628;48.714;9.472;2023-05-29T14:00:11;46.36;37.88;57.15;;
79200;Laerm;68628;48.714;9.472;2023-05-29T14:02:37;53.15;38.39;68.57;;
79200;Laerm;68628;48.714;9.472;2023-05-29T14:05:05;52.35;37.19;66.77;;
79200;Laerm;68628;48.714;9.472;2023-05-29T14:07:32;47.98;35.53;63.04;;
79200;Laerm;68628;48.714;9.472;2023-05-29T14:09:58;40.38;34.73;50.94;;
79200;Laerm;68628;48.714;9.472;2023-05-29T14:12:24;45.15;35.68;61.43;;
79200;Laerm;68628;48.714;9.472;2023-05-29T14:14:49;51.52;37.62;70.25;;